Saint Augustine, FL

6:05 AM EST on December 29, 2014 (GMT -0500)
Mayport Naval Station / Adm. David L. McDonald Field | Change Station
CLOSE
Current Station
Airport
Location: Mayport NS,
Elevation: 16 ft
Nearby Weather Stations
Active Advisory: Special Statement

Elev 16 ft 30.39 °N, 81.42 °W | Updated 13 minutes ago

Clear
Clear
65 °F
Feels Like 65 °F
N
9
Wind Variable Wind from WSW

Today
High -- | Low -- °F
--% Chance of Precip.
Yesterday
High -- | Low -- °F
Precip. -- in
7:19 AM 5:34 PM
First Quarter, 58% visible
Pressure 30.07 in
Visibility 7.0 miles
Clouds Overcast 400 ft
Dew Point 65 °F
Humidity 100%
Rainfall 0.00 in
Snow Depth Not available.
UV 0 out of 12
Pollen 2.90 out of 12
Air Quality Not available.
Flu Activity Not available.
METAR KNRB 291052Z 25008KT 7SM OVC004 18/18 A3007 RMK AO2 SLP181 T01830183 $

More Conditions Fewer Conditions

Pressure 30.07 in
Visibility 7.0 miles
Clouds Overcast 400 ft
Dew Point 65 °F
Humidity 100%
Rainfall 0.00 in
Snow Depth Not available.
UV 0 out of 12
Pollen 2.90 out of 12
Air Quality Not available.
Flu Activity Not available.
METAR KNRB 291052Z 25008KT 7SM OVC004 18/18 A3007 RMK AO2 SLP181 T01830183 $

More Conditions Fewer Conditions

10-Day Weather Forecast

Almanac

Astronomy

Dec. 29, 2014 Rise Set
Actual Time
Civil Twilight
Nautical Twilight
Astronomical Twilight
Moon
Length of Visible Light
Length of Day
Tomorrow will be .
, % of the Moon is Illuminated

Today's Extremes

State Highs State Lows

Community

WunderPhotos

Upload Photos

1,781,564 photos uploaded!

WunderBlogs® & News

Nearby

Air Quality

  Air Quality AQ Index Pollutant
Not available.

Snow Depth

Station Depth Elevation

Earthquake Activity

City Distance Mag. Time & Date
Minimum magnitude displayed is 2.5.

Coastal Water Temperatures

Place Temperature

Nearby Weather Stations